Time;durP1;ratioP1;P1;durP2;ratioP2;P2;SDS_P1;SDS_P2;PMS_P1;PMS_P2;Temp;Humidity;BMP_temperature;BMP_pressure;BME280_temperature;BME280_humidity;BME280_pressure;Samples;Min_cycle;Max_cycle;Signal;HPM_P1;HPM_P2
2023/08/21 00:01:22;;;;;;;6.77;3.50;;;;;;;18.56;87.93;102227.94;5233499;22;20133;-69
2023/08/21 00:07:13;;;;;;;6.40;3.17;;;;;;;18.54;87.69;102219.13;5445831;23;20135;-69
2023/08/21 00:09:38;;;;;;;7.35;3.40;;;;;;;18.50;87.97;102222.75;5264111;22;20101;-70
2023/08/21 00:14:31;;;;;;;4.97;3.05;;;;;;;18.51;87.49;102224.50;5505047;22;20024;-70
2023/08/21 00:16:57;;;;;;;7.88;3.55;;;;;;;18.48;88.58;102224.56;5155163;23;20076;-69
2023/08/21 00:19:22;;;;;;;8.70;3.65;;;;;;;18.51;88.47;102220.06;5023623;28;20503;-69
2023/08/21 00:21:48;;;;;;;5.15;3.17;;;;;;;18.47;90.04;102222.81;4999193;28;20095;-69
2023/08/21 00:24:13;;;;;;;9.50;3.47;;;;;;;18.40;90.06;102221.22;5027521;28;20040;-70
2023/08/21 00:26:39;;;;;;;11.38;3.35;;;;;;;18.47;88.80;102222.81;5015531;28;20036;-69
2023/08/21 00:29:04;;;;;;;7.82;3.17;;;;;;;18.44;89.49;102225.56;5035079;28;20044;-69
2023/08/21 00:31:29;;;;;;;9.02;3.42;;;;;;;18.47;88.90;102225.47;5010550;28;20447;-69
2023/08/21 00:33:55;;;;;;;5.93;3.13;;;;;;;18.48;88.42;102221.94;5030013;28;20102;-69
2023/08/21 00:36:20;;;;;;;6.03;3.10;;;;;;;18.43;89.27;102231.75;5030130;28;20025;-69
2023/08/21 00:38:47;;;;;;;8.52;3.53;;;;;;;18.42;90.56;102228.25;5035535;28;20035;-69
2023/08/21 00:41:12;;;;;;;9.25;3.90;;;;;;;18.35;92.03;102231.94;5022448;28;20333;-69
2023/08/21 00:43:38;;;;;;;8.30;4.03;;;;;;;18.27;91.93;102228.56;5037733;28;20030;-69
2023/08/21 00:46:03;;;;;;;7.88;4.10;;;;;;;18.24;92.84;102220.69;5022914;28;20047;-69
2023/08/21 00:48:29;;;;;;;6.70;3.42;;;;;;;18.13;92.68;102219.16;5056854;28;20029;-69
2023/08/21 00:50:55;;;;;;;7.70;3.30;;;;;;;18.08;92.14;102215.72;5048594;28;20467;-69
2023/08/21 00:53:21;;;;;;;7.65;3.13;;;;;;;17.95;92.89;102212.44;5045156;28;20094;-69
2023/08/21 00:55:46;;;;;;;8.07;3.47;;;;;;;18.13;91.16;102210.28;5034153;28;20086;-69
2023/08/21 00:58:13;;;;;;;8.05;3.70;;;;;;;18.08;91.22;102209.53;5070943;28;20024;-69
2023/08/21 01:00:39;;;;;;;6.32;3.15;;;;;;;18.12;91.42;102213.88;5051506;28;20028;-69
2023/08/21 01:03:04;;;;;;;6.95;2.88;;;;;;;18.02;91.56;102214.97;5033099;28;20083;-69
2023/08/21 01:05:30;;;;;;;7.70;3.85;;;;;;;17.94;92.24;102218.66;5032509;28;20073;-69
2023/08/21 01:08:10;;;;;;;7.47;3.55;;;;;;;18.19;90.77;102218.16;5044020;28;20086;-69
2023/08/21 01:11:12;;;;;;;7.68;3.53;;;;;;;18.16;91.11;102218.22;5058703;28;20094;-69
2023/08/21 01:13:48;;;;;;;8.90;3.25;;;;;;;17.94;90.88;102218.66;4998962;28;20078;-70
2023/08/21 01:16:15;;;;;;;6.03;3.50;;;;;;;17.92;91.59;102219.59;5051859;28;20252;-70
2023/08/21 01:18:42;;;;;;;7.10;4.07;;;;;;;17.71;93.09;102210.25;5037282;28;20075;-70
2023/08/21 01:21:08;;;;;;;8.43;4.35;;;;;;;17.69;93.83;102215.59;5021512;28;20044;-70
2023/08/21 01:23:37;;;;;;;10.70;4.50;;;;;;;17.56;94.86;102214.97;5020267;28;20081;-69
2023/08/21 01:26:04;;;;;;;10.70;3.90;;;;;;;17.70;94.15;102216.47;5054510;28;20043;-69
2023/08/21 01:28:31;;;;;;;7.95;4.10;;;;;;;17.84;93.52;102223.25;5030607;28;20120;-69
2023/08/21 01:31:05;;;;;;;7.78;4.38;;;;;;;17.89;92.96;102216.97;5047171;28;20024;-70
2023/08/21 01:33:35;;;;;;;7.35;3.70;;;;;;;17.62;94.88;102209.53;5051025;28;20395;-70
2023/08/21 01:36:03;;;;;;;15.90;3.80;;;;;;;17.58;95.45;102215.78;5053323;28;20468;-70
2023/08/21 01:38:32;;;;;;;8.50;4.10;;;;;;;17.66;95.30;102219.16;5043833;28;20035;-70
2023/08/21 01:40:58;;;;;;;8.10;4.20;;;;;;;17.67;95.02;102198.84;5062791;28;20036;-70
2023/08/21 01:43:24;;;;;;;7.18;4.07;;;;;;;17.61;95.73;102202.50;5022003;28;20040;-70
2023/08/21 01:45:49;;;;;;;8.95;4.28;;;;;;;17.47;95.17;102194.81;5033648;28;20396;-71
2023/08/21 01:48:17;;;;;;;8.38;4.43;;;;;;;17.46;95.08;102206.31;5027360;28;20033;-70
2023/08/21 01:50:42;;;;;;;9.25;4.47;;;;;;;17.46;95.00;102195.69;5068628;28;20039;-71
2023/08/21 01:53:08;;;;;;;9.82;4.18;;;;;;;17.48;94.24;102198.31;5020313;28;20040;-71
2023/08/21 01:55:33;;;;;;;6.82;4.00;;;;;;;17.47;94.20;102204.53;5047039;28;20119;-71
2023/08/21 01:57:59;;;;;;;8.43;4.28;;;;;;;17.46;94.34;102200.13;5016076;28;20060;-70
2023/08/21 02:00:24;;;;;;;7.35;4.18;;;;;;;17.36;95.32;102196.78;5045042;28;20048;-70
2023/08/21 02:02:49;;;;;;;7.45;4.13;;;;;;;17.25;95.30;102202.25;5017694;28;20182;-70
2023/08/21 02:05:15;;;;;;;5.68;3.53;;;;;;;17.17;95.07;102206.84;5036306;28;20078;-70
2023/08/21 02:07:40;;;;;;;8.18;4.03;;;;;;;17.09;94.44;102198.16;5017550;28;20437;-70
2023/08/21 02:10:06;;;;;;;6.45;4.05;;;;;;;16.96;95.51;102193.06;5045951;28;20484;-70
2023/08/21 02:12:32;;;;;;;5.47;3.90;;;;;;;16.93;95.38;102194.91;5033292;28;20060;-70
2023/08/21 02:14:57;;;;;;;8.80;3.83;;;;;;;16.96;94.60;102201.00;5036216;28;20028;-70
2023/08/21 02:17:26;;;;;;;6.47;4.25;;;;;;;16.88;96.18;102208.22;5037418;28;20041;-70
2023/08/21 02:19:51;;;;;;;7.95;4.20;;;;;;;16.97;95.85;102212.47;5071468;28;20404;-70
2023/08/21 02:22:17;;;;;;;9.40;4.60;;;;;;;16.80;96.01;102208.28;5018503;28;20045;-70
2023/08/21 02:24:42;;;;;;;7.22;4.53;;;;;;;16.89;96.71;102215.25;5024837;28;20033;-70
2023/08/21 02:27:08;;;;;;;7.00;4.60;;;;;;;16.89;96.09;102209.94;5030063;28;20074;-70
2023/08/21 02:29:33;;;;;;;7.03;4.50;;;;;;;16.80;95.95;102199.47;5027657;28;20040;-70
2023/08/21 02:31:59;;;;;;;7.50;5.15;;;;;;;16.70;97.45;102208.47;5033970;28;20033;-70
2023/08/21 02:34:24;;;;;;;6.88;3.92;;;;;;;16.71;95.88;102207.59;5036706;28;20047;-70
2023/08/21 02:36:49;;;;;;;9.10;4.38;;;;;;;16.60;96.40;102207.72;5012954;28;20048;-69
2023/08/21 02:39:15;;;;;;;9.05;3.58;;;;;;;16.71;95.72;102205.81;5047479;28;20040;-69
2023/08/21 02:41:40;;;;;;;7.22;4.88;;;;;;;16.66;96.84;102212.06;5013490;28;20063;-69
2023/08/21 02:44:06;;;;;;;5.00;3.92;;;;;;;16.71;95.92;102210.22;5030963;28;20117;-69
2023/08/21 02:46:33;;;;;;;6.10;4.00;;;;;;;16.68;95.35;102210.25;5018958;28;20032;-69
2023/08/21 02:48:58;;;;;;;7.13;4.40;;;;;;;16.71;95.66;102215.53;5032553;28;20049;-69
2023/08/21 02:51:24;;;;;;;8.45;4.13;;;;;;;16.55;96.17;102205.16;5037861;28;20526;-69
2023/08/21 02:53:49;;;;;;;11.00;4.00;;;;;;;16.62;95.69;102209.47;5049850;28;20032;-69
2023/08/21 02:56:15;;;;;;;9.20;4.43;;;;;;;16.69;95.75;102206.72;5032992;28;20037;-69
2023/08/21 02:58:40;;;;;;;6.75;4.75;;;;;;;16.76;96.49;102203.06;5022493;28;20082;-69
2023/08/21 03:01:06;;;;;;;9.93;5.55;;;;;;;16.86;96.26;102207.31;5026304;28;20511;-70
2023/08/21 03:03:33;;;;;;;8.82;4.97;;;;;;;16.74;96.65;102199.59;5036378;28;20024;-69
2023/08/21 03:05:59;;;;;;;7.07;5.07;;;;;;;16.64;97.04;102209.44;5039561;28;20086;-69
2023/08/21 03:08:24;;;;;;;9.32;4.90;;;;;;;16.63;97.38;102203.25;5031486;28;20032;-69
2023/08/21 03:10:50;;;;;;;6.63;4.60;;;;;;;16.67;96.74;102197.94;5034067;28;20040;-69
2023/08/21 03:13:15;;;;;;;9.75;5.03;;;;;;;16.65;96.19;102200.63;5033862;28;20476;-69
2023/08/21 03:15:41;;;;;;;9.55;5.30;;;;;;;16.67;96.35;102200.59;5012968;28;20039;-70
2023/08/21 03:18:06;;;;;;;8.00;5.20;;;;;;;16.59;96.29;102200.69;5033073;28;20061;-70
2023/08/21 03:20:31;;;;;;;9.20;5.13;;;;;;;16.56;96.38;102206.91;5028409;28;20033;-70
2023/08/21 03:22:57;;;;;;;9.93;5.75;;;;;;;16.48;97.41;102208.81;5010308;28;20035;-70
2023/08/21 03:25:22;;;;;;;10.02;5.53;;;;;;;16.51;97.81;102202.59;5048207;28;20028;-70
2023/08/21 03:27:49;;;;;;;9.38;6.18;;;;;;;16.45;97.79;102203.56;5035252;28;20480;-70
2023/08/21 03:30:15;;;;;;;7.00;5.32;;;;;;;16.33;97.58;102204.59;5052235;28;20108;-70
2023/08/21 03:32:40;;;;;;;9.30;5.60;;;;;;;16.45;97.29;102204.41;5052496;28;20036;-70
2023/08/21 03:35:06;;;;;;;8.38;5.60;;;;;;;16.44;97.52;102207.09;5052213;28;20400;-70
2023/08/21 03:37:32;;;;;;;8.10;5.38;;;;;;;16.37;97.46;102216.00;5053282;28;20684;-70
2023/08/21 03:39:57;;;;;;;8.05;5.50;;;;;;;16.37;97.35;102216.88;5020490;28;20123;-70
2023/08/21 03:42:23;;;;;;;6.80;5.35;;;;;;;16.32;97.91;102216.09;5021157;28;20115;-71
2023/08/21 03:44:50;;;;;;;11.63;5.80;;;;;;;16.32;98.21;102218.72;5015560;28;20040;-71
2023/08/21 03:47:16;;;;;;;11.23;6.00;;;;;;;16.34;97.99;102216.06;5048895;28;20047;-69
2023/08/21 03:49:42;;;;;;;10.43;5.93;;;;;;;16.19;99.70;102215.38;5031655;28;20029;-70
2023/08/21 03:52:07;;;;;;;9.82;5.55;;;;;;;16.18;99.98;102208.31;5031222;28;20462;-71
2023/08/21 03:54:32;;;;;;;11.32;5.93;;;;;;;16.19;99.70;102207.44;5030966;28;20025;-70
2023/08/21 03:56:58;;;;;;;9.95;5.22;;;;;;;16.16;100.00;102210.13;5034360;28;20040;-70
2023/08/21 03:59:27;;;;;;;10.15;5.32;;;;;;;16.09;100.00;102197.84;5030127;28;20098;-70
2023/08/21 04:01:52;;;;;;;10.77;5.60;;;;;;;16.18;99.67;102216.25;5030442;28;20513;-69
2023/08/21 04:04:18;;;;;;;14.98;5.95;;;;;;;16.13;100.00;102207.50;5035088;28;20063;-70
2023/08/21 04:06:44;;;;;;;12.45;5.53;;;;;;;16.18;99.43;102200.41;5035188;28;20028;-70
2023/08/21 04:09:10;;;;;;;7.18;4.88;;;;;;;15.93;98.02;102210.41;5031973;28;20121;-69
2023/08/21 04:11:36;;;;;;;8.88;4.93;;;;;;;16.03;98.48;102205.88;5013617;28;20029;-70
2023/08/21 04:14:01;;;;;;;9.80;5.05;;;;;;;16.01;99.13;102215.63;5039508;28;20063;-70
2023/08/21 04:16:28;;;;;;;12.85;5.40;;;;;;;15.96;98.70;102215.69;5029821;28;20037;-70
2023/08/21 04:18:54;;;;;;;9.68;5.20;;;;;;;15.94;98.78;102215.66;5023734;28;20052;-70
2023/08/21 04:21:19;;;;;;;9.75;4.80;;;;;;;15.88;99.02;102213.09;5040065;28;20123;-70
2023/08/21 04:23:47;;;;;;;12.98;6.32;;;;;;;15.88;100.00;102213.09;5034893;28;20349;-70
2023/08/21 04:26:13;;;;;;;12.70;5.57;;;;;;;15.99;100.00;102215.63;5021212;28;20131;-70
2023/08/21 04:28:41;;;;;;;11.15;6.28;;;;;;;15.91;100.00;102218.34;5029966;28;20039;-70
2023/08/21 04:31:07;;;;;;;9.23;5.55;;;;;;;15.88;100.00;102212.25;5037714;28;20040;-70
2023/08/21 04:33:34;;;;;;;9.48;5.70;;;;;;;16.01;100.00;102213.84;5054709;28;20092;-70
2023/08/21 04:36:00;;;;;;;8.32;5.60;;;;;;;16.05;100.00;102222.63;5051715;28;20471;-70
2023/08/21 04:38:25;;;;;;;9.00;5.78;;;;;;;16.03;100.00;102222.63;5020225;28;20033;-70
2023/08/21 04:40:51;;;;;;;11.13;5.68;;;;;;;16.02;99.64;102236.75;5054016;28;20043;-69
2023/08/21 04:43:17;;;;;;;10.25;5.53;;;;;;;16.04;99.68;102231.44;5033643;28;20029;-70
2023/08/21 04:45:53;;;;;;;13.23;5.95;;;;;;;16.14;99.70;102233.06;5054999;28;20028;-70
2023/08/21 04:48:19;;;;;;;12.57;6.25;;;;;;;16.22;99.14;102239.13;5071016;28;20463;-70
2023/08/21 04:50:45;;;;;;;13.70;5.32;;;;;;;15.97;100.00;102237.69;5036848;28;20041;-70
2023/08/21 04:53:11;;;;;;;10.82;5.90;;;;;;;16.09;100.00;102240.16;5043338;28;20044;-70
2023/08/21 04:55:36;;;;;;;9.05;5.60;;;;;;;15.97;100.00;102240.34;5054133;28;20029;-70
2023/08/21 04:58:03;;;;;;;11.68;6.60;;;;;;;15.96;100.00;102246.50;5038871;28;20032;-70
2023/08/21 05:00:28;;;;;;;8.27;6.13;;;;;;;16.03;100.00;102233.22;5055409;28;20020;-71
2023/08/21 05:02:54;;;;;;;8.98;6.10;;;;;;;16.22;100.00;102244.41;5039167;28;20042;-71
2023/08/21 05:05:20;;;;;;;8.43;5.85;;;;;;;16.29;100.00;102239.91;5047488;28;20029;-71
2023/08/21 05:07:48;;;;;;;9.95;6.03;;;;;;;16.30;100.00;102246.94;5022949;28;20040;-71
2023/08/21 05:10:13;;;;;;;9.10;5.93;;;;;;;16.30;100.00;102236.38;5033680;28;20033;-71
2023/08/21 05:12:39;;;;;;;10.93;6.63;;;;;;;16.33;100.00;102244.25;5048553;28;20456;-71
2023/08/21 05:15:04;;;;;;;10.77;6.60;;;;;;;16.31;100.00;102247.84;5024058;28;20036;-70
2023/08/21 05:17:30;;;;;;;13.13;6.75;;;;;;;16.26;100.00;102256.72;5019733;28;20041;-70
2023/08/21 05:19:56;;;;;;;9.52;6.78;;;;;;;16.36;100.00;102256.59;5008285;28;20045;-70
2023/08/21 05:22:22;;;;;;;8.05;6.55;;;;;;;16.48;100.00;102260.81;5031812;28;20515;-70
2023/08/21 05:24:47;;;;;;;10.27;6.93;;;;;;;16.59;100.00;102265.09;5037296;28;20350;-70
2023/08/21 05:27:13;;;;;;;12.25;8.45;;;;;;;16.64;100.00;102262.38;5016178;28;20041;-70
2023/08/21 05:29:39;;;;;;;12.90;8.43;;;;;;;16.76;100.00;102256.88;5033154;28;20033;-70
2023/08/21 05:32:04;;;;;;;10.52;8.27;;;;;;;16.82;100.00;102255.91;5033746;28;20147;-69
2023/08/21 05:34:31;;;;;;;15.40;8.02;;;;;;;16.82;100.00;102255.03;5014801;28;20485;-70
2023/08/21 05:36:56;;;;;;;11.00;8.95;;;;;;;16.80;100.00;102255.94;5041793;28;20029;-70
2023/08/21 05:39:22;;;;;;;12.48;8.40;;;;;;;16.80;100.00;102258.59;5023659;28;20082;-70
2023/08/21 05:41:47;;;;;;;12.95;9.02;;;;;;;16.85;100.00;102258.53;5034540;28;20033;-70
2023/08/21 05:44:12;;;;;;;15.82;8.48;;;;;;;16.94;100.00;102263.72;5015716;28;20041;-70
2023/08/21 05:46:38;;;;;;;12.85;8.05;;;;;;;17.07;100.00;102267.03;5017229;28;20326;-70
2023/08/21 05:49:03;;;;;;;13.55;9.10;;;;;;;17.05;100.00;102278.53;5045878;28;20709;-70
2023/08/21 05:51:29;;;;;;;13.65;8.35;;;;;;;17.26;100.00;102274.69;5017794;28;20040;-69
2023/08/21 05:53:55;;;;;;;16.33;8.90;;;;;;;17.30;100.00;102271.94;5023697;28;20036;-70
2023/08/21 05:56:21;;;;;;;14.25;9.18;;;;;;;17.53;100.00;102270.69;5018397;28;20030;-70
2023/08/21 05:58:47;;;;;;;19.95;8.95;;;;;;;17.67;100.00;102268.66;5024957;28;20491;-70
2023/08/21 06:01:12;;;;;;;14.82;8.38;;;;;;;17.79;100.00;102274.63;5032393;28;20038;-70
2023/08/21 06:03:38;;;;;;;17.20;8.60;;;;;;;17.98;100.00;102278.66;5029308;28;20075;-70
2023/08/21 06:06:05;;;;;;;17.00;8.65;;;;;;;18.23;100.00;102277.31;5028546;28;20305;-70
2023/08/21 06:08:31;;;;;;;16.30;7.50;;;;;;;18.40;98.64;102268.97;5033384;28;20468;-70
2023/08/21 06:10:57;;;;;;;9.18;6.82;;;;;;;18.62;98.29;102277.34;5033178;28;20119;-70
2023/08/21 06:13:23;;;;;;;8.88;6.60;;;;;;;18.78;96.55;102275.22;5048433;28;20086;-70
2023/08/21 06:15:48;;;;;;;12.02;7.07;;;;;;;19.16;96.92;102274.31;5050169;28;20024;-70
2023/08/21 06:18:14;;;;;;;10.70;7.05;;;;;;;19.46;95.50;102274.44;5035188;28;20044;-70
2023/08/21 06:20:43;;;;;;;10.50;7.13;;;;;;;19.61;93.13;102273.19;5042787;28;20041;-70
2023/08/21 06:23:08;;;;;;;12.65;6.93;;;;;;;20.05;94.29;102279.03;5039851;28;20028;-70
2023/08/21 06:25:36;;;;;;;11.82;7.40;;;;;;;20.66;94.01;102279.91;5021958;28;20047;-69
2023/08/21 06:28:02;;;;;;;12.85;7.10;;;;;;;21.16;90.26;102279.25;5036657;28;20444;-70
2023/08/21 06:30:28;;;;;;;12.00;6.68;;;;;;;21.34;88.04;102286.63;5025142;28;20120;-69
2023/08/21 06:32:54;;;;;;;9.05;6.20;;;;;;;21.81;88.50;102283.25;5040637;28;20483;-70
2023/08/21 06:35:19;;;;;;;9.98;7.07;;;;;;;21.92;83.68;102283.72;5038356;28;20503;-70
2023/08/21 06:37:45;;;;;;;9.93;6.35;;;;;;;22.04;83.06;102289.50;5034577;28;20028;-70
2023/08/21 06:40:11;;;;;;;10.10;6.18;;;;;;;22.19;80.70;102293.44;5055356;28;20040;-70
2023/08/21 06:42:37;;;;;;;8.07;5.43;;;;;;;22.05;80.04;102296.59;5018631;28;20047;-70
2023/08/21 06:45:06;;;;;;;7.18;5.35;;;;;;;21.70;78.74;102296.97;5038463;28;20033;-70
2023/08/21 06:47:32;;;;;;;9.52;6.18;;;;;;;21.89;80.17;102288.28;5052120;28;20025;-69
2023/08/21 06:49:57;;;;;;;11.45;5.70;;;;;;;21.82;77.44;102294.78;5033961;28;20448;-70
2023/08/21 06:52:23;;;;;;;10.13;5.95;;;;;;;21.63;77.74;102300.75;5034964;28;20032;-70
2023/08/21 06:54:49;;;;;;;11.05;6.15;;;;;;;21.59;78.20;102293.78;5050521;28;20381;-70
2023/08/21 06:57:14;;;;;;;8.43;5.80;;;;;;;21.54;78.83;102293.97;5024923;28;20400;-70
2023/08/21 06:59:40;;;;;;;12.98;6.78;;;;;;;21.35;78.61;102296.38;5040692;28;20050;-69
2023/08/21 07:02:06;;;;;;;12.18;6.28;;;;;;;21.42;80.26;102297.91;5036210;28;20036;-70
2023/08/21 07:04:33;;;;;;;10.68;6.03;;;;;;;21.72;79.16;102300.47;5037067;28;20108;-69
2023/08/21 07:06:59;;;;;;;10.15;5.93;;;;;;;21.76;79.48;102296.72;5040385;28;20100;-70
2023/08/21 07:09:24;;;;;;;11.55;5.97;;;;;;;21.91;77.89;102297.09;5053876;28;20419;-70
2023/08/21 07:11:50;;;;;;;10.43;5.90;;;;;;;21.92;80.36;102301.53;5016411;28;20131;-70
2023/08/21 07:14:16;;;;;;;10.40;6.13;;;;;;;22.29;77.68;102301.00;5042309;28;20040;-70
2023/08/21 07:16:42;;;;;;;15.60;6.57;;;;;;;22.25;78.23;102298.53;5032506;28;20028;-70
2023/08/21 07:19:08;;;;;;;10.52;6.00;;;;;;;22.67;76.07;102301.38;5033580;28;20082;-69
2023/08/21 07:21:35;;;;;;;11.30;5.45;;;;;;;22.48;72.13;102306.56;5051251;28;20064;-69
2023/08/21 07:24:02;;;;;;;11.63;5.88;;;;;;;22.94;77.43;102309.22;5040314;28;20025;-69
2023/08/21 07:26:29;;;;;;;10.40;5.15;;;;;;;22.79;72.55;102308.03;5035874;28;20086;-69
2023/08/21 07:28:54;;;;;;;11.30;5.13;;;;;;;22.84;71.66;102302.47;5053214;28;20036;-69
2023/08/21 07:31:20;;;;;;;9.20;4.78;;;;;;;23.10;73.45;102304.13;5032747;28;20115;-69
2023/08/21 07:33:45;;;;;;;7.15;4.10;;;;;;;22.92;67.46;102299.53;5041980;28;20479;-69
2023/08/21 07:36:16;;;;;;;10.27;4.80;;;;;;;22.74;69.55;102295.78;5017329;28;20393;-69
2023/08/21 07:38:43;;;;;;;9.38;4.85;;;;;;;22.73;69.67;102299.38;5036330;28;20464;-69
2023/08/21 07:44:33;;;;;;;9.40;4.65;;;;;;;22.78;71.79;102294.72;5375670;22;20077;-70
2023/08/21 07:46:59;;;;;;;10.15;4.90;;;;;;;22.70;71.31;102307.50;4990638;28;20042;-69
2023/08/21 07:49:25;;;;;;;8.55;4.95;;;;;;;22.99;71.60;102311.69;4966270;28;20038;-70
2023/08/21 07:51:50;;;;;;;9.95;5.47;;;;;;;23.07;71.91;102308.69;4968182;28;20034;-72
2023/08/21 07:54:15;;;;;;;8.73;5.28;;;;;;;23.03;70.16;102313.31;4961225;28;20030;-72
2023/08/21 07:56:41;;;;;;;10.02;5.47;;;;;;;22.84;71.11;102311.41;4991070;28;20089;-70
2023/08/21 07:59:06;;;;;;;9.75;5.82;;;;;;;22.87;70.73;102309.50;4961232;28;20022;-70
2023/08/21 08:01:32;;;;;;;12.63;5.70;;;;;;;23.11;68.55;102308.53;4987569;28;20033;-72
2023/08/21 08:03:58;;;;;;;10.13;5.20;;;;;;;23.13;69.78;102308.47;5001591;28;20042;-72
2023/08/21 08:06:24;;;;;;;8.40;5.13;;;;;;;23.23;67.61;102306.28;4973836;28;20042;-72
2023/08/21 08:08:50;;;;;;;8.55;5.88;;;;;;;23.20;68.63;102312.63;4993948;28;20121;-71
2023/08/21 08:11:15;;;;;;;14.32;6.28;;;;;;;23.39;70.97;102307.41;4970516;28;20441;-72
2023/08/21 08:13:40;;;;;;;10.23;5.95;;;;;;;23.42;67.53;102312.59;4986420;28;20029;-71
2023/08/21 08:16:06;;;;;;;10.52;5.57;;;;;;;23.63;67.21;102323.31;4980986;28;20488;-71
2023/08/21 08:18:31;;;;;;;8.15;5.05;;;;;;;23.68;65.70;102321.31;4975606;28;20053;-71
2023/08/21 08:20:57;;;;;;;10.20;5.43;;;;;;;23.82;67.74;102321.56;4991708;28;20092;-72
2023/08/21 08:23:23;;;;;;;8.95;4.75;;;;;;;23.65;65.59;102321.47;4986380;28;20078;-72
2023/08/21 08:26:08;;;;;;;11.27;4.97;;;;;;;23.67;67.64;102322.25;4954736;28;20045;-71
2023/08/21 08:28:40;;;;;;;10.00;5.05;;;;;;;23.41;65.55;102316.22;4973292;28;20112;-72
2023/08/21 08:31:05;;;;;;;8.93;4.43;;;;;;;23.49;64.16;102314.09;4974305;28;20041;-72
2023/08/21 08:33:30;;;;;;;8.63;4.25;;;;;;;23.45;63.08;102312.47;4988493;28;20444;-72
2023/08/21 08:35:56;;;;;;;9.32;4.38;;;;;;;23.61;63.93;102311.81;4977878;28;20030;-71
2023/08/21 08:38:21;;;;;;;9.15;4.63;;;;;;;23.58;65.34;102306.59;4992962;28;20088;-71
2023/08/21 08:40:47;;;;;;;10.32;4.57;;;;;;;23.75;64.12;102314.75;4961179;28;20036;-72
2023/08/21 08:43:13;;;;;;;8.27;4.22;;;;;;;23.91;63.72;102308.75;4986839;28;20501;-71
2023/08/21 08:45:40;;;;;;;8.45;4.30;;;;;;;23.87;62.61;102321.41;4979366;28;20038;-72
2023/08/21 08:48:07;;;;;;;9.85;4.53;;;;;;;23.75;63.65;102312.09;5001886;28;20041;-71
2023/08/21 08:50:33;;;;;;;10.00;4.50;;;;;;;23.95;63.47;102313.00;4993447;28;20022;-71
2023/08/21 08:53:00;;;;;;;11.38;3.95;;;;;;;24.02;62.93;102318.03;4993210;28;20033;-72
2023/08/21 08:55:26;;;;;;;10.00;3.92;;;;;;;24.29;60.39;102320.38;4977123;28;20168;-69
2023/08/21 08:57:52;;;;;;;8.43;3.47;;;;;;;24.47;60.12;102325.84;4993187;28;20411;-69
2023/08/21 09:00:20;;;;;;;8.35;3.60;;;;;;;24.45;59.09;102328.59;4991419;28;20449;-69
2023/08/21 09:02:45;;;;;;;7.50;3.63;;;;;;;24.07;57.92;102317.81;4998690;28;20515;-69
2023/08/21 09:05:12;;;;;;;8.43;3.50;;;;;;;24.25;58.15;102323.28;4986547;28;20030;-69
2023/08/21 09:07:39;;;;;;;9.90;2.55;;;;;;;24.29;57.85;102325.72;4990590;28;20030;-69
2023/08/21 09:10:12;;;;;;;6.55;2.20;;;;;;;24.65;57.75;102324.09;4996384;28;20229;-69
2023/08/21 09:12:38;;;;;;;5.45;1.95;;;;;;;24.62;57.29;102318.91;4981296;28;20061;-69
2023/08/21 09:15:10;;;;;;;6.80;2.50;;;;;;;24.78;57.99;102317.19;4964256;28;20032;-71
2023/08/21 09:17:36;;;;;;;9.85;3.80;;;;;;;24.77;57.31;102310.13;4973408;28;20040;-72
2023/08/21 09:20:06;;;;;;;8.32;3.10;;;;;;;24.89;57.75;102317.56;4977216;28;20434;-72
2023/08/21 09:22:31;;;;;;;8.85;3.20;;;;;;;24.99;57.74;102320.66;4993595;28;20116;-71
2023/08/21 09:25:04;;;;;;;10.27;3.05;;;;;;;24.89;55.94;102312.19;4980112;28;20026;-71
2023/08/21 09:27:31;;;;;;;7.80;2.80;;;;;;;25.11;57.00;102307.59;4993227;28;20132;-71
2023/08/21 09:29:57;;;;;;;8.50;2.47;;;;;;;25.25;55.83;102308.59;4967054;28;20018;-69
2023/08/21 09:32:22;;;;;;;6.47;2.35;;;;;;;24.89;56.36;102311.34;4976982;28;20141;-69
2023/08/21 09:34:48;;;;;;;6.78;1.92;;;;;;;25.03;57.17;102314.19;4975361;28;20094;-70
2023/08/21 09:37:17;;;;;;;5.22;1.90;;;;;;;24.97;56.43;102310.94;4960828;28;20486;-69
2023/08/21 09:39:42;;;;;;;6.78;1.85;;;;;;;24.94;54.77;102305.75;4993733;28;20101;-69
2023/08/21 09:42:09;;;;;;;5.38;2.20;;;;;;;24.72;57.17;102304.09;4962066;28;20034;-71
2023/08/21 09:44:43;;;;;;;6.93;2.15;;;;;;;24.75;56.62;102309.31;4995616;28;20080;-70
2023/08/21 09:47:09;;;;;;;5.65;2.03;;;;;;;24.88;56.53;102312.25;4987086;28;20055;-70
2023/08/21 09:49:36;;;;;;;6.28;2.10;;;;;;;24.88;56.26;102310.47;4982532;28;20042;-70
2023/08/21 09:52:05;;;;;;;7.85;2.10;;;;;;;24.76;52.53;102308.38;4992218;28;20026;-71
2023/08/21 09:54:31;;;;;;;4.78;1.73;;;;;;;24.83;54.77;102307.13;5002390;28;20140;-70
2023/08/21 09:57:01;;;;;;;5.82;2.00;;;;;;;24.81;56.17;102309.03;4975148;28;20026;-70
2023/08/21 09:59:28;;;;;;;6.47;2.20;;;;;;;24.83;54.35;102306.28;4996909;28;20105;-70
2023/08/21 10:01:57;;;;;;;5.45;2.00;;;;;;;25.03;56.57;102302.63;4976230;28;20030;-70
2023/08/21 10:04:24;;;;;;;7.10;2.20;;;;;;;24.89;56.11;102301.47;4992940;28;20033;-71
2023/08/21 10:06:53;;;;;;;5.47;1.92;;;;;;;25.07;56.79;102298.84;4988158;28;20026;-70
2023/08/21 10:09:21;;;;;;;9.57;2.35;;;;;;;25.07;54.44;102296.16;4989284;28;20022;-70
2023/08/21 10:11:47;;;;;;;8.27;2.30;;;;;;;25.10;54.62;102293.31;4971403;28;20038;-71
2023/08/21 10:14:13;;;;;;;6.03;2.20;;;;;;;25.33;58.59;102286.81;4988451;28;20053;-70
2023/08/21 10:16:39;;;;;;;7.30;2.42;;;;;;;25.30;56.34;102291.41;4993321;28;20470;-70
2023/08/21 10:19:08;;;;;;;5.45;2.03;;;;;;;25.22;55.92;102289.13;4975743;28;20419;-70
2023/08/21 10:21:37;;;;;;;5.03;2.08;;;;;;;25.29;55.55;102285.19;4992230;28;20030;-71
2023/08/21 10:24:03;;;;;;;6.40;2.03;;;;;;;25.50;56.40;102280.56;4958886;28;20026;-71
2023/08/21 10:26:28;;;;;;;9.32;2.60;;;;;;;25.55;53.01;102274.97;5008025;28;20045;-70
2023/08/21 10:29:02;;;;;;;6.75;2.60;;;;;;;25.68;56.46;102280.53;4959960;28;20152;-70
2023/08/21 10:31:39;;;;;;;5.57;1.83;;;;;;;25.49;51.08;102277.97;4999924;28;20104;-71
2023/08/21 10:34:09;;;;;;;6.47;2.00;;;;;;;25.18;53.27;102283.03;4991170;28;20034;-71
2023/08/21 10:36:44;;;;;;;5.40;1.90;;;;;;;25.25;54.01;102281.78;4975519;28;20427;-71
2023/08/21 10:39:21;;;;;;;6.60;1.90;;;;;;;25.32;55.57;102281.53;4986004;28;20023;-71
2023/08/21 10:41:57;;;;;;;7.50;2.20;;;;;;;25.58;55.46;102281.00;4987454;28;20041;-70
2023/08/21 10:44:41;;;;;;;8.65;2.47;;;;;;;25.62;55.11;102284.41;4991636;28;20104;-70
2023/08/21 10:47:22;;;;;;;8.25;2.97;;;;;;;25.73;53.70;102279.34;4986508;28;20060;-70
2023/08/21 10:49:54;;;;;;;7.90;2.22;;;;;;;25.77;52.73;102280.03;4961022;28;20055;-70
2023/08/21 10:52:31;;;;;;;7.72;2.63;;;;;;;25.75;53.61;102285.50;4971838;28;20070;-70
2023/08/21 10:55:00;;;;;;;7.00;2.20;;;;;;;25.71;54.37;102286.59;4959566;28;20038;-70
2023/08/21 10:57:28;;;;;;;6.57;2.10;;;;;;;25.76;53.77;102291.75;4980901;28;20454;-69
2023/08/21 10:59:58;;;;;;;7.93;2.33;;;;;;;25.78;52.96;102295.22;4967072;28;20085;-70
2023/08/21 11:02:25;;;;;;;4.72;2.10;;;;;;;25.72;53.97;102300.91;4966873;28;20145;-69
2023/08/21 11:04:51;;;;;;;7.57;2.30;;;;;;;25.74;52.77;102294.50;4962156;28;20128;-70
2023/08/21 11:07:17;;;;;;;7.05;2.17;;;;;;;25.74;51.34;102294.50;4958426;28;20117;-70
2023/08/21 11:09:42;;;;;;;4.40;1.63;;;;;;;25.46;52.97;102289.72;4963132;28;20030;-69
2023/08/21 11:12:10;;;;;;;9.65;2.60;;;;;;;25.58;53.23;102285.53;4974905;28;20034;-70
2023/08/21 11:14:36;;;;;;;6.20;1.90;;;;;;;25.58;51.42;102285.53;4942600;28;20395;-69
2023/08/21 11:17:02;;;;;;;5.15;2.00;;;;;;;25.55;52.87;102283.88;4958473;28;20076;-70
2023/08/21 11:19:31;;;;;;;3.38;1.42;;;;;;;25.55;51.74;102283.88;4940047;28;20481;-70
2023/08/21 11:21:57;;;;;;;5.32;1.65;;;;;;;25.58;51.29;102277.47;4962463;28;20026;-69
2023/08/21 11:24:22;;;;;;;7.97;2.05;;;;;;;25.48;52.99;102281.59;4965222;28;20502;-69
2023/08/21 11:26:48;;;;;;;6.68;2.33;;;;;;;25.41;51.49;102278.34;4950191;28;20069;-69
2023/08/21 11:29:14;;;;;;;4.65;1.45;;;;;;;25.39;52.12;102274.91;4955970;28;20042;-70